fecha-hora | temperatura | viento dirección-velocidad-rachas | humedad | presión

  • 03-08-2020 21:00:00 | 17.00°C | Nordeste-27.00 km/h - 42.00 km/h | 94.00% | 991.90 hPa
  • 03-08-2020 20:00:00 | 17.10°C | Norte-28.00 km/h - 37.00 km/h | 96.00% | 992.00 hPa
  • 03-08-2020 19:00:00 | 17.00°C | Norte-25.00 km/h - 36.00 km/h | 95.00% | 992.40 hPa
  • 03-08-2020 18:00:00 | 17.20°C | Norte-23.00 km/h - 30.00 km/h | 94.00% | 992.50 hPa
  • 03-08-2020 17:00:00 | 18.90°C | Norte-15.00 km/h - 27.00 km/h | 88.00% | 992.60 hPa
  • 03-08-2020 16:00:00 | 18.80°C | Norte-18.00 km/h - 24.00 km/h | 86.00% | 992.80 hPa
  • 03-08-2020 15:00:00 | 19.10°C | Norte-12.00 km/h - 19.00 km/h | 86.00% | 993.20 hPa
  • 03-08-2020 14:00:00 | 18.10°C | Oeste-4.00 km/h - 9.00 km/h | 90.00% | 993.50 hPa
  • 03-08-2020 13:00:00 | 17.10°C | Sur-5.00 km/h - 17.00 km/h | 89.00% | 993.50 hPa
  • 03-08-2020 12:00:00 | 16.00°C | Sudeste-12.00 km/h - 19.00 km/h | 92.00% | 993.50 hPa
  • 03-08-2020 11:00:00 | 15.30°C | Sudeste-11.00 km/h - 16.00 km/h | 91.00% | 993.30 hPa
  • 03-08-2020 10:00:00 | 15.40°C | Sur-11.00 km/h - 22.00 km/h | 90.00% | 993.40 hPa
  • 03-08-2020 09:00:00 | 15.20°C | Sur-17.00 km/h - 22.00 km/h | 89.00% | 992.80 hPa
  • 03-08-2020 08:00:00 | 15.30°C | Sur-14.00 km/h - 17.00 km/h | 87.00% | 992.60 hPa
  • 03-08-2020 07:00:00 | 16.10°C | Sudoeste-5.00 km/h - 8.00 km/h | 80.00% | 992.70 hPa
  • 03-08-2020 06:00:00 | 16.00°C | Nordeste-4.00 km/h - 9.00 km/h | 79.00% | 992.60 hPa
  • 03-08-2020 05:00:00 | 15.70°C | Este-9.00 km/h - 15.00 km/h | 80.00% | 992.90 hPa
  • 03-08-2020 04:00:00 | 15.30°C | Nordeste-13.00 km/h - 17.00 km/h | 86.00% | 993.30 hPa
  • 03-08-2020 03:00:00 | 15.40°C | Norte-14.00 km/h - 23.00 km/h | 84.00% | 994.00 hPa
  • 03-08-2020 02:00:00 | 15.40°C | Norte-18.00 km/h - 24.00 km/h | 84.00% | 994.20 hPa
  • 03-08-2020 01:00:00 | 15.40°C | Norte-19.00 km/h - 29.00 km/h | 84.00% | 994.30 hPa
  • 03-08-2020 00:00:00 | 15.40°C | Nordeste-17.00 km/h - 37.00 km/h | 84.00% | 994.10 hPa
  • 02-08-2020 23:00:00 | 15.30°C | Norte-27.00 km/h - 40.00 km/h | 85.00% | 994.60 hPa
  • 02-08-2020 22:00:00 | 15.60°C | Nordeste-26.00 km/h - 41.00 km/h | 84.00% | 994.00 hPa
    • diseño web asturias Información sobre el estado de las mareas, altura de la marejada, temperatura del agua y otros datos de Gijón en Asturias.

      Surf Gijón